sensor_id;sensor_type;location;lat;lon;timestamp;P1;durP1;ratioP1;P2;durP2;ratioP2
18196;SDS011;9224;52.422;13.024;2023-03-23T00:01:07;2.90;;;2.50;;
18196;SDS011;9224;52.422;13.024;2023-03-23T00:03:37;2.33;;;2.13;;
18196;SDS011;9224;52.422;13.024;2023-03-23T00:06:05;3.78;;;2.17;;
18196;SDS011;9224;52.422;13.024;2023-03-23T00:08:32;2.75;;;2.13;;
18196;SDS011;9224;52.422;13.024;2023-03-23T00:11:09;3.25;;;2.40;;
18196;SDS011;9224;52.422;13.024;2023-03-23T00:13:40;2.75;;;2.30;;
18196;SDS011;9224;52.422;13.024;2023-03-23T00:16:07;3.97;;;2.30;;
18196;SDS011;9224;52.422;13.024;2023-03-23T00:18:42;3.00;;;2.25;;
18196;SDS011;9224;52.422;13.024;2023-03-23T00:21:09;2.67;;;2.45;;
18196;SDS011;9224;52.422;13.024;2023-03-23T00:23:35;2.22;;;2.03;;
18196;SDS011;9224;52.422;13.024;2023-03-23T00:26:03;3.30;;;2.22;;
18196;SDS011;9224;52.422;13.024;2023-03-23T00:28:31;2.95;;;2.58;;
18196;SDS011;9224;52.422;13.024;2023-03-23T00:30:59;3.20;;;2.60;;
18196;SDS011;9224;52.422;13.024;2023-03-23T00:33:27;2.55;;;2.17;;
18196;SDS011;9224;52.422;13.024;2023-03-23T00:35:55;2.53;;;2.13;;
18196;SDS011;9224;52.422;13.024;2023-03-23T00:38:22;2.40;;;2.20;;
18196;SDS011;9224;52.422;13.024;2023-03-23T00:40:49;3.53;;;2.40;;
18196;SDS011;9224;52.422;13.024;2023-03-23T00:43:17;2.65;;;2.38;;
18196;SDS011;9224;52.422;13.024;2023-03-23T00:45:46;2.75;;;2.55;;
18196;SDS011;9224;52.422;13.024;2023-03-23T00:48:17;3.53;;;2.75;;
18196;SDS011;9224;52.422;13.024;2023-03-23T00:50:44;2.63;;;2.42;;
18196;SDS011;9224;52.422;13.024;2023-03-23T00:53:11;4.68;;;2.55;;
18196;SDS011;9224;52.422;13.024;2023-03-23T00:55:37;2.50;;;2.30;;
18196;SDS011;9224;52.422;13.024;2023-03-23T00:58:05;2.58;;;2.30;;
18196;SDS011;9224;52.422;13.024;2023-03-23T01:00:32;2.70;;;2.40;;
18196;SDS011;9224;52.422;13.024;2023-03-23T01:03:00;2.50;;;2.30;;
18196;SDS011;9224;52.422;13.024;2023-03-23T01:05:27;2.35;;;2.15;;
18196;SDS011;9224;52.422;13.024;2023-03-23T01:07:56;2.90;;;2.60;;
18196;SDS011;9224;52.422;13.024;2023-03-23T01:10:23;3.70;;;2.50;;
18196;SDS011;9224;52.422;13.024;2023-03-23T01:12:51;2.50;;;2.20;;
18196;SDS011;9224;52.422;13.024;2023-03-23T01:15:18;4.18;;;2.80;;
18196;SDS011;9224;52.422;13.024;2023-03-23T01:17:45;3.58;;;2.70;;
18196;SDS011;9224;52.422;13.024;2023-03-23T01:20:14;2.55;;;2.33;;
18196;SDS011;9224;52.422;13.024;2023-03-23T01:22:41;3.00;;;2.50;;
18196;SDS011;9224;52.422;13.024;2023-03-23T01:25:09;2.95;;;2.75;;
18196;SDS011;9224;52.422;13.024;2023-03-23T01:27:36;2.95;;;2.65;;
18196;SDS011;9224;52.422;13.024;2023-03-23T01:30:03;2.58;;;2.38;;
18196;SDS011;9224;52.422;13.024;2023-03-23T01:32:31;4.43;;;2.58;;
18196;SDS011;9224;52.422;13.024;2023-03-23T01:34:57;3.10;;;2.42;;
18196;SDS011;9224;52.422;13.024;2023-03-23T01:37:25;3.05;;;2.83;;
18196;SDS011;9224;52.422;13.024;2023-03-23T01:39:52;3.50;;;2.58;;
18196;SDS011;9224;52.422;13.024;2023-03-23T01:42:21;3.72;;;2.53;;
18196;SDS011;9224;52.422;13.024;2023-03-23T01:47:53;2.83;;;2.50;;
18196;SDS011;9224;52.422;13.024;2023-03-23T01:50:26;2.88;;;2.53;;
18196;SDS011;9224;52.422;13.024;2023-03-23T01:52:56;3.57;;;2.63;;
18196;SDS011;9224;52.422;13.024;2023-03-23T01:55:24;2.50;;;2.30;;
18196;SDS011;9224;52.422;13.024;2023-03-23T01:57:53;2.50;;;2.30;;
18196;SDS011;9224;52.422;13.024;2023-03-23T02:00:20;3.37;;;2.57;;
18196;SDS011;9224;52.422;13.024;2023-03-23T02:02:47;2.97;;;2.45;;
18196;SDS011;9224;52.422;13.024;2023-03-23T02:05:15;3.35;;;2.65;;
18196;SDS011;9224;52.422;13.024;2023-03-23T02:07:46;3.10;;;2.80;;
18196;SDS011;9224;52.422;13.024;2023-03-23T02:10:15;2.58;;;2.38;;
18196;SDS011;9224;52.422;13.024;2023-03-23T02:12:42;2.67;;;2.47;;
18196;SDS011;9224;52.422;13.024;2023-03-23T02:15:09;2.60;;;2.40;;
18196;SDS011;9224;52.422;13.024;2023-03-23T02:17:37;2.50;;;2.30;;
18196;SDS011;9224;52.422;13.024;2023-03-23T02:20:19;4.10;;;2.33;;
18196;SDS011;9224;52.422;13.024;2023-03-23T02:26:06;2.53;;;2.27;;
18196;SDS011;9224;52.422;13.024;2023-03-23T02:31:40;2.53;;;2.20;;
18196;SDS011;9224;52.422;13.024;2023-03-23T02:34:14;2.95;;;2.63;;
18196;SDS011;9224;52.422;13.024;2023-03-23T02:36:44;2.72;;;2.53;;
18196;SDS011;9224;52.422;13.024;2023-03-23T02:39:13;3.03;;;2.65;;
18196;SDS011;9224;52.422;13.024;2023-03-23T02:41:43;4.43;;;2.47;;
18196;SDS011;9224;52.422;13.024;2023-03-23T02:44:11;2.70;;;2.30;;
18196;SDS011;9224;52.422;13.024;2023-03-23T02:46:39;3.35;;;2.55;;
18196;SDS011;9224;52.422;13.024;2023-03-23T02:49:06;3.55;;;2.22;;
18196;SDS011;9224;52.422;13.024;2023-03-23T02:51:35;2.90;;;2.60;;
18196;SDS011;9224;52.422;13.024;2023-03-23T02:54:03;2.70;;;2.50;;
18196;SDS011;9224;52.422;13.024;2023-03-23T02:56:31;3.00;;;2.53;;
18196;SDS011;9224;52.422;13.024;2023-03-23T02:58:57;2.70;;;2.40;;
18196;SDS011;9224;52.422;13.024;2023-03-23T03:04:18;3.00;;;2.30;;
18196;SDS011;9224;52.422;13.024;2023-03-23T03:06:49;2.85;;;2.47;;
18196;SDS011;9224;52.422;13.024;2023-03-23T03:09:25;2.95;;;2.20;;
18196;SDS011;9224;52.422;13.024;2023-03-23T03:11:58;3.17;;;2.50;;
18196;SDS011;9224;52.422;13.024;2023-03-23T03:14:29;2.65;;;2.30;;
18196;SDS011;9224;52.422;13.024;2023-03-23T03:16:59;3.20;;;2.38;;
18196;SDS011;9224;52.422;13.024;2023-03-23T03:19:29;2.10;;;2.00;;
18196;SDS011;9224;52.422;13.024;2023-03-23T03:21:58;3.47;;;2.17;;
18196;SDS011;9224;52.422;13.024;2023-03-23T03:24:25;2.50;;;2.17;;
18196;SDS011;9224;52.422;13.024;2023-03-23T03:26:54;2.42;;;2.20;;
18196;SDS011;9224;52.422;13.024;2023-03-23T03:29:25;2.45;;;2.25;;
18196;SDS011;9224;52.422;13.024;2023-03-23T03:31:53;3.08;;;2.33;;
18196;SDS011;9224;52.422;13.024;2023-03-23T03:34:22;3.30;;;2.25;;
18196;SDS011;9224;52.422;13.024;2023-03-23T03:36:49;2.42;;;2.17;;
18196;SDS011;9224;52.422;13.024;2023-03-23T03:39:18;2.20;;;2.03;;
18196;SDS011;9224;52.422;13.024;2023-03-23T03:41:46;2.53;;;2.00;;
18196;SDS011;9224;52.422;13.024;2023-03-23T03:44:13;2.45;;;2.25;;
18196;SDS011;9224;52.422;13.024;2023-03-23T03:46:40;4.00;;;2.17;;
18196;SDS011;9224;52.422;13.024;2023-03-23T03:49:08;3.28;;;2.17;;
18196;SDS011;9224;52.422;13.024;2023-03-23T03:51:54;2.22;;;2.03;;
18196;SDS011;9224;52.422;13.024;2023-03-23T03:54:22;2.40;;;2.20;;
18196;SDS011;9224;52.422;13.024;2023-03-23T03:56:48;3.60;;;2.10;;
18196;SDS011;9224;52.422;13.024;2023-03-23T03:59:16;2.35;;;2.13;;
18196;SDS011;9224;52.422;13.024;2023-03-23T04:01:43;3.58;;;2.40;;
18196;SDS011;9224;52.422;13.024;2023-03-23T04:04:10;2.78;;;2.33;;
18196;SDS011;9224;52.422;13.024;2023-03-23T04:06:36;3.30;;;2.10;;
18196;SDS011;9224;52.422;13.024;2023-03-23T04:09:03;2.25;;;2.03;;
18196;SDS011;9224;52.422;13.024;2023-03-23T04:11:33;3.53;;;2.10;;
18196;SDS011;9224;52.422;13.024;2023-03-23T04:14:00;2.15;;;2.00;;
18196;SDS011;9224;52.422;13.024;2023-03-23T04:16:27;2.28;;;2.08;;
18196;SDS011;9224;52.422;13.024;2023-03-23T04:18:55;2.33;;;2.08;;
18196;SDS011;9224;52.422;13.024;2023-03-23T04:21:22;2.78;;;2.40;;
18196;SDS011;9224;52.422;13.024;2023-03-23T04:23:48;2.67;;;2.05;;
18196;SDS011;9224;52.422;13.024;2023-03-23T04:26:15;2.42;;;2.22;;
18196;SDS011;9224;52.422;13.024;2023-03-23T04:28:43;2.67;;;2.38;;
18196;SDS011;9224;52.422;13.024;2023-03-23T04:31:10;2.30;;;2.20;;
18196;SDS011;9224;52.422;13.024;2023-03-23T04:33:37;2.58;;;2.35;;
18196;SDS011;9224;52.422;13.024;2023-03-23T04:36:06;2.60;;;2.40;;
18196;SDS011;9224;52.422;13.024;2023-03-23T04:38:32;2.70;;;2.45;;
18196;SDS011;9224;52.422;13.024;2023-03-23T04:41:00;2.93;;;2.20;;
18196;SDS011;9224;52.422;13.024;2023-03-23T04:43:27;2.35;;;2.15;;
18196;SDS011;9224;52.422;13.024;2023-03-23T04:45:56;2.43;;;2.23;;
18196;SDS011;9224;52.422;13.024;2023-03-23T04:48:25;2.70;;;2.30;;
18196;SDS011;9224;52.422;13.024;2023-03-23T04:50:52;2.45;;;2.20;;
18196;SDS011;9224;52.422;13.024;2023-03-23T04:53:19;3.30;;;2.50;;
18196;SDS011;9224;52.422;13.024;2023-03-23T04:55:47;2.72;;;2.45;;
18196;SDS011;9224;52.422;13.024;2023-03-23T04:58:15;3.13;;;2.03;;
18196;SDS011;9224;52.422;13.024;2023-03-23T05:00:42;3.08;;;2.50;;
18196;SDS011;9224;52.422;13.024;2023-03-23T05:03:16;3.92;;;2.45;;
18196;SDS011;9224;52.422;13.024;2023-03-23T05:05:42;2.28;;;2.00;;
18196;SDS011;9224;52.422;13.024;2023-03-23T05:08:12;3.22;;;2.30;;
18196;SDS011;9224;52.422;13.024;2023-03-23T05:10:39;2.50;;;2.30;;
18196;SDS011;9224;52.422;13.024;2023-03-23T05:13:05;2.97;;;2.33;;
18196;SDS011;9224;52.422;13.024;2023-03-23T05:15:32;2.50;;;2.30;;
18196;SDS011;9224;52.422;13.024;2023-03-23T05:17:59;3.50;;;2.40;;
18196;SDS011;9224;52.422;13.024;2023-03-23T05:20:27;2.33;;;2.13;;
18196;SDS011;9224;52.422;13.024;2023-03-23T05:22:55;2.63;;;2.42;;
18196;SDS011;9224;52.422;13.024;2023-03-23T05:25:23;2.57;;;2.30;;
18196;SDS011;9224;52.422;13.024;2023-03-23T05:27:49;3.67;;;2.50;;
18196;SDS011;9224;52.422;13.024;2023-03-23T05:30:18;3.67;;;2.22;;
18196;SDS011;9224;52.422;13.024;2023-03-23T05:32:45;3.47;;;2.53;;
18196;SDS011;9224;52.422;13.024;2023-03-23T05:35:15;2.55;;;2.35;;
18196;SDS011;9224;52.422;13.024;2023-03-23T05:37:44;3.05;;;2.75;;
18196;SDS011;9224;52.422;13.024;2023-03-23T05:40:11;3.03;;;2.63;;
18196;SDS011;9224;52.422;13.024;2023-03-23T05:42:38;2.45;;;2.25;;
18196;SDS011;9224;52.422;13.024;2023-03-23T05:45:06;3.00;;;2.70;;
18196;SDS011;9224;52.422;13.024;2023-03-23T05:47:35;4.53;;;2.75;;
18196;SDS011;9224;52.422;13.024;2023-03-23T05:50:02;2.95;;;2.65;;
18196;SDS011;9224;52.422;13.024;2023-03-23T05:52:30;4.40;;;2.43;;
18196;SDS011;9224;52.422;13.024;2023-03-23T05:54:59;3.10;;;2.70;;
18196;SDS011;9224;52.422;13.024;2023-03-23T05:57:25;3.70;;;2.80;;
18196;SDS011;9224;52.422;13.024;2023-03-23T05:59:53;3.53;;;2.90;;
18196;SDS011;9224;52.422;13.024;2023-03-23T06:02:20;4.15;;;2.70;;
18196;SDS011;9224;52.422;13.024;2023-03-23T06:04:48;3.28;;;2.53;;
18196;SDS011;9224;52.422;13.024;2023-03-23T06:07:15;2.85;;;2.53;;
18196;SDS011;9224;52.422;13.024;2023-03-23T06:09:41;3.30;;;2.80;;
18196;SDS011;9224;52.422;13.024;2023-03-23T06:12:10;3.40;;;2.72;;
18196;SDS011;9224;52.422;13.024;2023-03-23T06:14:36;2.97;;;2.65;;
18196;SDS011;9224;52.422;13.024;2023-03-23T06:17:03;4.50;;;2.50;;
18196;SDS011;9224;52.422;13.024;2023-03-23T06:19:31;3.53;;;3.10;;
18196;SDS011;9224;52.422;13.024;2023-03-23T06:21:59;4.13;;;2.67;;
18196;SDS011;9224;52.422;13.024;2023-03-23T06:24:26;4.13;;;2.90;;
18196;SDS011;9224;52.422;13.024;2023-03-23T06:26:53;3.45;;;2.88;;
18196;SDS011;9224;52.422;13.024;2023-03-23T06:29:21;2.70;;;2.50;;
18196;SDS011;9224;52.422;13.024;2023-03-23T06:31:48;4.70;;;2.90;;
18196;SDS011;9224;52.422;13.024;2023-03-23T06:34:18;4.07;;;2.63;;
18196;SDS011;9224;52.422;13.024;2023-03-23T06:36:45;4.60;;;3.10;;
18196;SDS011;9224;52.422;13.024;2023-03-23T06:39:11;3.05;;;2.72;;
18196;SDS011;9224;52.422;13.024;2023-03-23T06:41:39;4.45;;;2.90;;
18196;SDS011;9224;52.422;13.024;2023-03-23T06:44:05;3.58;;;2.85;;
18196;SDS011;9224;52.422;13.024;2023-03-23T06:46:34;5.13;;;3.20;;
18196;SDS011;9224;52.422;13.024;2023-03-23T06:49:01;4.63;;;2.72;;
18196;SDS011;9224;52.422;13.024;2023-03-23T06:51:28;5.43;;;2.88;;
18196;SDS011;9224;52.422;13.024;2023-03-23T06:53:55;3.15;;;2.83;;
18196;SDS011;9224;52.422;13.024;2023-03-23T06:56:22;3.55;;;2.80;;
18196;SDS011;9224;52.422;13.024;2023-03-23T06:58:49;3.45;;;2.90;;
18196;SDS011;9224;52.422;13.024;2023-03-23T07:01:16;2.93;;;2.67;;
18196;SDS011;9224;52.422;13.024;2023-03-23T07:03:44;4.38;;;2.83;;
18196;SDS011;9224;52.422;13.024;2023-03-23T07:06:10;3.13;;;2.63;;
18196;SDS011;9224;52.422;13.024;2023-03-23T07:08:38;4.53;;;2.88;;
18196;SDS011;9224;52.422;13.024;2023-03-23T07:11:04;3.05;;;2.80;;
18196;SDS011;9224;52.422;13.024;2023-03-23T07:13:31;4.80;;;3.00;;
18196;SDS011;9224;52.422;13.024;2023-03-23T07:15:58;3.70;;;3.10;;
18196;SDS011;9224;52.422;13.024;2023-03-23T07:18:25;3.70;;;2.63;;
18196;SDS011;9224;52.422;13.024;2023-03-23T07:20:53;3.38;;;2.80;;
18196;SDS011;9224;52.422;13.024;2023-03-23T07:23:20;3.38;;;3.05;;
18196;SDS011;9224;52.422;13.024;2023-03-23T07:25:47;3.30;;;3.00;;
18196;SDS011;9224;52.422;13.024;2023-03-23T07:28:13;4.10;;;2.90;;
18196;SDS011;9224;52.422;13.024;2023-03-23T07:30:40;4.07;;;3.00;;
18196;SDS011;9224;52.422;13.024;2023-03-23T07:33:08;3.55;;;2.92;;
18196;SDS011;9224;52.422;13.024;2023-03-23T07:35:35;4.93;;;3.17;;
18196;SDS011;9224;52.422;13.024;2023-03-23T07:38:04;3.60;;;2.80;;
18196;SDS011;9224;52.422;13.024;2023-03-23T07:40:31;2.72;;;2.50;;
18196;SDS011;9224;52.422;13.024;2023-03-23T07:42:59;4.45;;;3.17;;
18196;SDS011;9224;52.422;13.024;2023-03-23T07:45:27;4.40;;;3.13;;
18196;SDS011;9224;52.422;13.024;2023-03-23T07:47:54;3.20;;;2.90;;
18196;SDS011;9224;52.422;13.024;2023-03-23T07:50:21;3.58;;;2.80;;
18196;SDS011;9224;52.422;13.024;2023-03-23T07:52:49;3.42;;;3.03;;
18196;SDS011;9224;52.422;13.024;2023-03-23T07:55:19;3.67;;;2.90;;
18196;SDS011;9224;52.422;13.024;2023-03-23T07:57:46;3.83;;;3.20;;
18196;SDS011;9224;52.422;13.024;2023-03-23T08:00:14;3.47;;;3.10;;
18196;SDS011;9224;52.422;13.024;2023-03-23T08:02:45;5.03;;;3.20;;
18196;SDS011;9224;52.422;13.024;2023-03-23T08:05:11;3.17;;;2.88;;
18196;SDS011;9224;52.422;13.024;2023-03-23T08:07:39;3.80;;;3.10;;
18196;SDS011;9224;52.422;13.024;2023-03-23T08:10:07;3.47;;;3.10;;
18196;SDS011;9224;52.422;13.024;2023-03-23T08:12:38;3.28;;;2.97;;
18196;SDS011;9224;52.422;13.024;2023-03-23T08:15:06;4.22;;;2.95;;
18196;SDS011;9224;52.422;13.024;2023-03-23T08:17:33;3.65;;;3.00;;
18196;SDS011;9224;52.422;13.024;2023-03-23T08:20:00;3.03;;;2.75;;
18196;SDS011;9224;52.422;13.024;2023-03-23T08:22:33;3.58;;;3.28;;
18196;SDS011;9224;52.422;13.024;2023-03-23T08:25:00;4.32;;;3.10;;
18196;SDS011;9224;52.422;13.024;2023-03-23T08:27:28;3.40;;;2.97;;
18196;SDS011;9224;52.422;13.024;2023-03-23T08:29:56;3.47;;;3.17;;
18196;SDS011;9224;52.422;13.024;2023-03-23T08:32:23;3.50;;;3.20;;
18196;SDS011;9224;52.422;13.024;2023-03-23T08:34:49;3.45;;;3.15;;
18196;SDS011;9224;52.422;13.024;2023-03-23T08:37:16;3.75;;;3.10;;
18196;SDS011;9224;52.422;13.024;2023-03-23T08:39:43;3.40;;;3.10;;
18196;SDS011;9224;52.422;13.024;2023-03-23T08:42:09;3.35;;;2.97;;
18196;SDS011;9224;52.422;13.024;2023-03-23T08:44:36;3.08;;;2.80;;
18196;SDS011;9224;52.422;13.024;2023-03-23T08:47:05;3.90;;;3.10;;
18196;SDS011;9224;52.422;13.024;2023-03-23T08:49:32;2.63;;;2.42;;
18196;SDS011;9224;52.422;13.024;2023-03-23T08:51:59;3.45;;;2.63;;
18196;SDS011;9224;52.422;13.024;2023-03-23T08:54:26;3.97;;;2.73;;
18196;SDS011;9224;52.422;13.024;2023-03-23T08:56:54;2.95;;;2.60;;
18196;SDS011;9224;52.422;13.024;2023-03-23T08:59:21;2.70;;;2.50;;
18196;SDS011;9224;52.422;13.024;2023-03-23T09:01:48;2.60;;;2.40;;
18196;SDS011;9224;52.422;13.024;2023-03-23T09:04:16;2.92;;;2.65;;
18196;SDS011;9224;52.422;13.024;2023-03-23T09:06:42;2.67;;;2.47;;
18196;SDS011;9224;52.422;13.024;2023-03-23T09:09:09;2.63;;;2.42;;
18196;SDS011;9224;52.422;13.024;2023-03-23T09:11:36;3.05;;;2.55;;
18196;SDS011;9224;52.422;13.024;2023-03-23T09:14:04;2.90;;;2.50;;
18196;SDS011;9224;52.422;13.024;2023-03-23T09:16:32;3.40;;;2.70;;
18196;SDS011;9224;52.422;13.024;2023-03-23T09:18:59;2.95;;;2.50;;
18196;SDS011;9224;52.422;13.024;2023-03-23T09:21:27;2.83;;;2.40;;
18196;SDS011;9224;52.422;13.024;2023-03-23T09:23:55;2.97;;;2.65;;
18196;SDS011;9224;52.422;13.024;2023-03-23T09:26:23;3.20;;;2.30;;
18196;SDS011;9224;52.422;13.024;2023-03-23T09:28:50;2.92;;;2.60;;
18196;SDS011;9224;52.422;13.024;2023-03-23T09:31:17;2.67;;;2.47;;
18196;SDS011;9224;52.422;13.024;2023-03-23T09:33:45;2.85;;;2.58;;
18196;SDS011;9224;52.422;13.024;2023-03-23T09:36:12;4.30;;;2.20;;
18196;SDS011;9224;52.422;13.024;2023-03-23T09:38:43;3.35;;;2.50;;
18196;SDS011;9224;52.422;13.024;2023-03-23T09:41:13;2.40;;;2.20;;
18196;SDS011;9224;52.422;13.024;2023-03-23T09:43:49;2.60;;;2.40;;
18196;SDS011;9224;52.422;13.024;2023-03-23T09:46:34;3.07;;;2.53;;
18196;SDS011;9224;52.422;13.024;2023-03-23T09:49:07;2.53;;;2.30;;
18196;SDS011;9224;52.422;13.024;2023-03-23T09:51:39;2.45;;;2.30;;
18196;SDS011;9224;52.422;13.024;2023-03-23T09:54:11;2.80;;;2.50;;
18196;SDS011;9224;52.422;13.024;2023-03-23T09:56:44;3.20;;;2.60;;
18196;SDS011;9224;52.422;13.024;2023-03-23T09:59:13;2.97;;;2.55;;
18196;SDS011;9224;52.422;13.024;2023-03-23T10:01:43;2.40;;;2.20;;
18196;SDS011;9224;52.422;13.024;2023-03-23T10:04:13;3.08;;;2.53;;
18196;SDS011;9224;52.422;13.024;2023-03-23T10:06:42;2.85;;;2.25;;
18196;SDS011;9224;52.422;13.024;2023-03-23T10:09:12;3.42;;;2.60;;
18196;SDS011;9224;52.422;13.024;2023-03-23T10:11:44;2.35;;;2.15;;
18196;SDS011;9224;52.422;13.024;2023-03-23T10:14:19;2.30;;;2.10;;
18196;SDS011;9224;52.422;13.024;2023-03-23T10:16:54;2.65;;;2.45;;
18196;SDS011;9224;52.422;13.024;2023-03-23T10:19:26;2.28;;;2.08;;
18196;SDS011;9224;52.422;13.024;2023-03-23T10:21:59;2.80;;;2.38;;
18196;SDS011;9224;52.422;13.024;2023-03-23T10:24:32;3.05;;;2.28;;
18196;SDS011;9224;52.422;13.024;2023-03-23T10:27:03;2.83;;;2.22;;
18196;SDS011;9224;52.422;13.024;2023-03-23T10:29:36;2.90;;;2.50;;
18196;SDS011;9224;52.422;13.024;2023-03-23T10:32:08;2.22;;;2.13;;
18196;SDS011;9224;52.422;13.024;2023-03-23T10:34:40;2.33;;;2.13;;
18196;SDS011;9224;52.422;13.024;2023-03-23T10:37:11;2.45;;;2.25;;
18196;SDS011;9224;52.422;13.024;2023-03-23T10:39:43;2.80;;;2.30;;
18196;SDS011;9224;52.422;13.024;2023-03-23T10:42:21;2.30;;;2.10;;
18196;SDS011;9224;52.422;13.024;2023-03-23T10:44:48;2.10;;;2.00;;
18196;SDS011;9224;52.422;13.024;2023-03-23T10:47:16;2.30;;;2.03;;
18196;SDS011;9224;52.422;13.024;2023-03-23T10:49:43;2.35;;;2.15;;
18196;SDS011;9224;52.422;13.024;2023-03-23T10:52:17;2.40;;;2.20;;
18196;SDS011;9224;52.422;13.024;2023-03-23T10:55:01;2.78;;;2.28;;
18196;SDS011;9224;52.422;13.024;2023-03-23T10:57:30;2.92;;;2.30;;
18196;SDS011;9224;52.422;13.024;2023-03-23T11:00:03;2.95;;;2.38;;
18196;SDS011;9224;52.422;13.024;2023-03-23T11:02:36;2.37;;;2.17;;
18196;SDS011;9224;52.422;13.024;2023-03-23T11:05:06;2.30;;;2.10;;
18196;SDS011;9224;52.422;13.024;2023-03-23T11:07:38;2.40;;;2.20;;
18196;SDS011;9224;52.422;13.024;2023-03-23T11:10:15;2.28;;;2.08;;
18196;SDS011;9224;52.422;13.024;2023-03-23T11:12:44;2.43;;;2.23;;
18196;SDS011;9224;52.422;13.024;2023-03-23T11:15:21;2.40;;;2.20;;
18196;SDS011;9224;52.422;13.024;2023-03-23T11:17:55;2.40;;;2.20;;
18196;SDS011;9224;52.422;13.024;2023-03-23T11:20:23;2.42;;;2.10;;
18196;SDS011;9224;52.422;13.024;2023-03-23T11:22:51;2.47;;;2.13;;
18196;SDS011;9224;52.422;13.024;2023-03-23T11:25:19;4.40;;;2.00;;
18196;SDS011;9224;52.422;13.024;2023-03-23T11:27:47;2.47;;;2.28;;
18196;SDS011;9224;52.422;13.024;2023-03-23T11:30:19;2.13;;;1.92;;
18196;SDS011;9224;52.422;13.024;2023-03-23T11:32:49;2.55;;;2.25;;
18196;SDS011;9224;52.422;13.024;2023-03-23T11:35:18;2.90;;;2.20;;
18196;SDS011;9224;52.422;13.024;2023-03-23T11:37:47;2.38;;;2.17;;
18196;SDS011;9224;52.422;13.024;2023-03-23T11:40:16;2.83;;;2.05;;
18196;SDS011;9224;52.422;13.024;2023-03-23T11:42:45;3.30;;;2.10;;
18196;SDS011;9224;52.422;13.024;2023-03-23T11:45:15;2.75;;;2.13;;
18196;SDS011;9224;52.422;13.024;2023-03-23T11:47:47;2.28;;;2.05;;
18196;SDS011;9224;52.422;13.024;2023-03-23T11:50:20;2.65;;;2.15;;
18196;SDS011;9224;52.422;13.024;2023-03-23T11:52:51;2.10;;;1.95;;
18196;SDS011;9224;52.422;13.024;2023-03-23T11:55:22;3.50;;;2.35;;
18196;SDS011;9224;52.422;13.024;2023-03-23T11:57:51;2.85;;;2.40;;
18196;SDS011;9224;52.422;13.024;2023-03-23T12:00:19;2.33;;;2.13;;
18196;SDS011;9224;52.422;13.024;2023-03-23T12:05:38;3.13;;;2.10;;
18196;SDS011;9224;52.422;13.024;2023-03-23T12:08:17;2.53;;;2.33;;
18196;SDS011;9224;52.422;13.024;2023-03-23T12:10:51;2.75;;;2.33;;
18196;SDS011;9224;52.422;13.024;2023-03-23T12:13:30;2.22;;;2.10;;
18196;SDS011;9224;52.422;13.024;2023-03-23T12:16:05;3.10;;;2.50;;
18196;SDS011;9224;52.422;13.024;2023-03-23T12:18:38;3.03;;;2.17;;
18196;SDS011;9224;52.422;13.024;2023-03-23T12:21:12;3.15;;;2.35;;
18196;SDS011;9224;52.422;13.024;2023-03-23T12:23:45;2.78;;;2.40;;
18196;SDS011;9224;52.422;13.024;2023-03-23T12:26:17;2.35;;;2.15;;
18196;SDS011;9224;52.422;13.024;2023-03-23T12:31:49;2.57;;;2.30;;
18196;SDS011;9224;52.422;13.024;2023-03-23T12:34:24;2.27;;;2.07;;
18196;SDS011;9224;52.422;13.024;2023-03-23T12:36:59;2.90;;;2.40;;
18196;SDS011;9224;52.422;13.024;2023-03-23T12:39:56;2.30;;;2.10;;
18196;SDS011;9224;52.422;13.024;2023-03-23T12:42:47;2.40;;;2.20;;
18196;SDS011;9224;52.422;13.024;2023-03-23T12:45:21;3.15;;;2.20;;
18196;SDS011;9224;52.422;13.024;2023-03-23T12:47:50;2.65;;;1.92;;
18196;SDS011;9224;52.422;13.024;2023-03-23T12:50:23;2.85;;;2.08;;
18196;SDS011;9224;52.422;13.024;2023-03-23T12:52:56;2.70;;;2.13;;
18196;SDS011;9224;52.422;13.024;2023-03-23T12:55:27;3.08;;;2.00;;
18196;SDS011;9224;52.422;13.024;2023-03-23T12:57:56;1.98;;;1.70;;
18196;SDS011;9224;52.422;13.024;2023-03-23T13:00:27;3.65;;;2.10;;
18196;SDS011;9224;52.422;13.024;2023-03-23T13:02:57;3.42;;;2.40;;
18196;SDS011;9224;52.422;13.024;2023-03-23T13:05:28;2.42;;;2.17;;
18196;SDS011;9224;52.422;13.024;2023-03-23T13:08:02;2.38;;;2.00;;
18196;SDS011;9224;52.422;13.024;2023-03-23T13:10:32;2.65;;;1.98;;
18196;SDS011;9224;52.422;13.024;2023-03-23T13:13:01;2.92;;;2.30;;
18196;SDS011;9224;52.422;13.024;2023-03-23T13:15:31;3.27;;;1.87;;
18196;SDS011;9224;52.422;13.024;2023-03-23T13:18:02;4.32;;;2.25;;
18196;SDS011;9224;52.422;13.024;2023-03-23T13:20:37;2.33;;;2.00;;
18196;SDS011;9224;52.422;13.024;2023-03-23T13:23:09;2.95;;;2.20;;
18196;SDS011;9224;52.422;13.024;2023-03-23T13:25:49;3.33;;;2.10;;
18196;SDS011;9224;52.422;13.024;2023-03-23T13:28:19;2.67;;;2.30;;
18196;SDS011;9224;52.422;13.024;2023-03-23T13:30:59;2.85;;;2.05;;
18196;SDS011;9224;52.422;13.024;2023-03-23T13:33:30;4.68;;;2.25;;
18196;SDS011;9224;52.422;13.024;2023-03-23T13:36:03;3.13;;;1.95;;
18196;SDS011;9224;52.422;13.024;2023-03-23T13:38:33;3.13;;;2.30;;
18196;SDS011;9224;52.422;13.024;2023-03-23T13:41:05;3.30;;;2.10;;
18196;SDS011;9224;52.422;13.024;2023-03-23T13:43:34;2.80;;;2.00;;
18196;SDS011;9224;52.422;13.024;2023-03-23T13:46:11;3.95;;;2.22;;
18196;SDS011;9224;52.422;13.024;2023-03-23T13:48:44;3.55;;;1.98;;
18196;SDS011;9224;52.422;13.024;2023-03-23T13:51:26;2.25;;;2.03;;
18196;SDS011;9224;52.422;13.024;2023-03-23T13:54:05;3.90;;;1.90;;
18196;SDS011;9224;52.422;13.024;2023-03-23T13:56:48;3.37;;;2.10;;
18196;SDS011;9224;52.422;13.024;2023-03-23T13:59:28;3.20;;;2.30;;
18196;SDS011;9224;52.422;13.024;2023-03-23T14:04:54;3.07;;;2.40;;
18196;SDS011;9224;52.422;13.024;2023-03-23T14:07:21;2.65;;;1.80;;
18196;SDS011;9224;52.422;13.024;2023-03-23T14:09:49;2.65;;;1.90;;
18196;SDS011;9224;52.422;13.024;2023-03-23T14:12:17;2.85;;;2.15;;
18196;SDS011;9224;52.422;13.024;2023-03-23T14:14:45;3.13;;;2.10;;
18196;SDS011;9224;52.422;13.024;2023-03-23T14:17:15;2.85;;;2.00;;
18196;SDS011;9224;52.422;13.024;2023-03-23T14:19:45;2.95;;;2.17;;
18196;SDS011;9224;52.422;13.024;2023-03-23T14:22:17;3.25;;;2.00;;
18196;SDS011;9224;52.422;13.024;2023-03-23T14:24:45;3.28;;;2.10;;
18196;SDS011;9224;52.422;13.024;2023-03-23T14:27:12;2.40;;;2.20;;
18196;SDS011;9224;52.422;13.024;2023-03-23T14:29:40;3.45;;;2.00;;
18196;SDS011;9224;52.422;13.024;2023-03-23T14:32:07;2.75;;;1.90;;
18196;SDS011;9224;52.422;13.024;2023-03-23T14:34:38;3.28;;;2.00;;
18196;SDS011;9224;52.422;13.024;2023-03-23T14:37:05;3.60;;;1.90;;
18196;SDS011;9224;52.422;13.024;2023-03-23T14:39:36;3.15;;;2.10;;
18196;SDS011;9224;52.422;13.024;2023-03-23T14:42:03;3.80;;;2.40;;
18196;SDS011;9224;52.422;13.024;2023-03-23T14:44:32;4.55;;;2.60;;
18196;SDS011;9224;52.422;13.024;2023-03-23T14:47:01;2.90;;;2.15;;
18196;SDS011;9224;52.422;13.024;2023-03-23T14:49:29;3.13;;;2.30;;
18196;SDS011;9224;52.422;13.024;2023-03-23T14:52:03;3.13;;;2.40;;
18196;SDS011;9224;52.422;13.024;2023-03-23T14:54:35;2.75;;;2.50;;
18196;SDS011;9224;52.422;13.024;2023-03-23T14:57:05;4.43;;;2.08;;
18196;SDS011;9224;52.422;13.024;2023-03-23T14:59:39;4.15;;;2.38;;
18196;SDS011;9224;52.422;13.024;2023-03-23T15:02:08;3.05;;;2.15;;
18196;SDS011;9224;52.422;13.024;2023-03-23T15:04:38;2.95;;;1.90;;
18196;SDS011;9224;52.422;13.024;2023-03-23T15:07:06;2.75;;;2.17;;
18196;SDS011;9224;52.422;13.024;2023-03-23T15:09:34;2.40;;;2.00;;
18196;SDS011;9224;52.422;13.024;2023-03-23T15:12:06;3.15;;;2.30;;
18196;SDS011;9224;52.422;13.024;2023-03-23T15:14:33;3.33;;;2.58;;
18196;SDS011;9224;52.422;13.024;2023-03-23T15:17:03;2.53;;;1.88;;
18196;SDS011;9224;52.422;13.024;2023-03-23T15:19:32;2.23;;;1.80;;
18196;SDS011;9224;52.422;13.024;2023-03-23T15:22:03;2.60;;;1.92;;